createdAt,value
2023-01-31T00:00:14.728Z,19.57
2023-01-31T00:45:58.877Z,18.50
2023-01-31T00:48:50.775Z,19.23
2023-01-31T00:52:01.540Z,18.70
2023-01-31T00:55:22.847Z,18.23
2023-01-31T01:02:35.747Z,19.13
2023-01-31T01:13:15.513Z,18.10
2023-01-31T01:20:07.605Z,18.57
2023-01-31T01:30:53.402Z,17.67
2023-01-31T01:33:56.817Z,18.03
2023-01-31T01:36:29.777Z,17.70
2023-01-31T01:50:55.920Z,18.77
2023-01-31T01:53:31.076Z,18.70
2023-01-31T01:56:37.504Z,17.60
2023-01-31T01:59:56.806Z,17.77
2023-01-31T02:03:00.154Z,19.10
2023-01-31T02:07:58.291Z,18.50
2023-01-31T02:09:35.103Z,19.20
2023-01-31T02:13:03.624Z,18.63
2023-01-31T02:15:41.562Z,19.60
2023-01-31T02:18:10.946Z,19.20
2023-01-31T02:21:27.402Z,17.27
2023-01-31T02:24:58.163Z,18.40
2023-01-31T02:28:01.296Z,18.90
2023-01-31T02:31:26.803Z,17.87
2023-01-31T02:34:03.829Z,18.00
2023-01-31T02:37:04.817Z,17.80
2023-01-31T02:39:51.268Z,17.47
2023-01-31T02:43:13.931Z,18.07
2023-01-31T02:46:00.983Z,17.07
2023-01-31T02:52:18.304Z,17.23
2023-01-31T02:58:43.609Z,16.90
2023-01-31T03:09:43.007Z,16.20
2023-01-31T03:16:45.677Z,16.70
2023-01-31T03:19:34.818Z,17.27
2023-01-31T03:43:52.943Z,17.93
2023-01-31T03:59:44.121Z,16.60
2023-01-31T04:21:35.293Z,16.50
2023-01-31T04:25:17.318Z,17.10
2023-01-31T04:36:03.868Z,18.93
2023-01-31T04:44:05.205Z,20.37
2023-01-31T04:51:41.884Z,18.90
2023-01-31T05:11:13.152Z,15.80
2023-01-31T05:18:08.925Z,16.10
2023-01-31T05:20:40.989Z,16.60
2023-01-31T05:23:13.827Z,16.77
2023-01-31T05:25:42.482Z,15.93
2023-01-31T05:28:11.826Z,15.80
2023-01-31T05:30:40.646Z,15.87
2023-01-31T05:33:09.306Z,14.40
2023-01-31T05:35:38.876Z,14.37
2023-01-31T05:38:09.812Z,14.80
2023-01-31T05:40:40.056Z,14.50
2023-01-31T05:43:08.658Z,14.30
2023-01-31T05:45:40.248Z,14.93
2023-01-31T05:48:09.778Z,15.87
2023-01-31T05:53:48.750Z,16.00
2023-01-31T05:56:34.962Z,16.60
2023-01-31T05:59:03.531Z,15.47
2023-01-31T06:01:32.222Z,16.90
2023-01-31T06:04:04.305Z,17.70
2023-01-31T06:06:33.400Z,17.20
2023-01-31T06:09:03.388Z,18.13
2023-01-31T06:11:33.361Z,17.10
2023-01-31T06:14:18.485Z,17.23
2023-01-31T06:17:02.145Z,16.90
2023-01-31T06:19:36.950Z,16.43
2023-01-31T06:22:06.073Z,16.33
2023-01-31T06:24:34.552Z,16.87
2023-01-31T06:27:06.400Z,17.00
2023-01-31T06:29:34.896Z,16.57
2023-01-31T06:32:03.345Z,18.10
2023-01-31T06:34:37.872Z,17.40
2023-01-31T06:37:09.240Z,17.43
2023-01-31T06:39:42.734Z,17.63
2023-01-31T06:42:15.203Z,16.20
2023-01-31T06:44:50.647Z,18.10
2023-01-31T06:47:41.949Z,18.17
2023-01-31T06:50:34.719Z,18.03
2023-01-31T06:53:09.413Z,18.30
2023-01-31T06:55:38.865Z,18.23
2023-01-31T07:26:09.633Z,16.60
2023-01-31T07:28:43.198Z,16.80
2023-01-31T07:31:14.185Z,15.60
2023-01-31T07:33:44.021Z,15.77
2023-01-31T07:36:44.203Z,15.50
2023-01-31T07:39:19.553Z,15.30
2023-01-31T07:41:51.206Z,15.50
2023-01-31T07:44:19.839Z,15.43
2023-01-31T07:46:51.241Z,15.50
2023-01-31T07:49:21.026Z,15.80
2023-01-31T07:51:51.558Z,16.50
2023-01-31T07:54:19.941Z,16.60
2023-01-31T07:56:50.367Z,16.63
2023-01-31T07:59:18.850Z,16.80
2023-01-31T08:02:04.405Z,15.97
2023-01-31T08:04:36.207Z,16.70
2023-01-31T08:07:06.876Z,17.30
2023-01-31T08:09:35.438Z,17.20
2023-01-31T08:12:42.127Z,21.70
2023-01-31T08:15:46.708Z,17.67
2023-01-31T08:18:34.044Z,18.53
2023-01-31T08:22:02.287Z,17.50
2023-01-31T08:24:46.876Z,17.17
2023-01-31T08:27:50.805Z,17.80
2023-01-31T08:39:12.031Z,16.50
2023-01-31T08:46:14.305Z,15.83
2023-01-31T09:28:11.244Z,15.53
2023-01-31T09:31:04.177Z,17.07
2023-01-31T09:33:35.291Z,15.33
2023-01-31T09:36:13.470Z,14.77
2023-01-31T10:21:05.138Z,15.13
2023-01-31T10:24:53.686Z,15.33
2023-01-31T10:27:56.079Z,14.70
2023-01-31T10:45:46.648Z,15.73
2023-01-31T10:52:28.869Z,14.20
2023-01-31T10:55:27.777Z,14.90
2023-01-31T10:58:43.365Z,14.50
2023-01-31T11:05:08.547Z,17.90
2023-01-31T11:08:20.849Z,16.50
2023-01-31T11:12:03.784Z,15.80
2023-01-31T11:14:32.230Z,15.90
2023-01-31T11:17:04.180Z,16.57
2023-01-31T11:30:48.327Z,16.30
2023-01-31T11:33:53.531Z,16.30
2023-01-31T11:43:33.173Z,18.50
2023-01-31T11:47:43.993Z,18.73
2023-01-31T11:52:41.791Z,17.53
2023-01-31T12:04:46.355Z,17.93
2023-01-31T13:29:45.233Z,17.60
2023-01-31T13:38:08.090Z,19.83
2023-01-31T14:31:47.232Z,15.70
2023-01-31T14:43:40.825Z,15.07
